createdAt,value
2018-05-27T00:00:28.583Z,20.41
2018-05-27T00:02:55.433Z,20.38
2018-05-27T00:05:22.803Z,20.31
2018-05-27T00:07:50.312Z,20.24
2018-05-27T00:10:17.395Z,20.15
2018-05-27T00:12:43.753Z,20.13
2018-05-27T00:15:10.159Z,20.13
2018-05-27T00:17:36.525Z,20.10
2018-05-27T00:20:02.961Z,20.07
2018-05-27T00:22:29.326Z,20.07
2018-05-27T00:24:55.707Z,20.08
2018-05-27T00:27:22.089Z,20.08
2018-05-27T00:29:48.509Z,20.17
2018-05-27T00:32:15.057Z,20.26
2018-05-27T00:34:42.146Z,20.19
2018-05-27T00:37:08.494Z,20.16
2018-05-27T00:39:34.995Z,20.18
2018-05-27T00:42:01.410Z,20.12
2018-05-27T00:44:28.140Z,20.05
2018-05-27T00:46:54.616Z,20.00
2018-05-27T00:49:21.483Z,19.98
2018-05-27T00:51:47.993Z,19.89
2018-05-27T00:54:14.361Z,19.84
2018-05-27T00:56:40.793Z,19.90
2018-05-27T00:59:07.190Z,20.09
2018-05-27T01:01:33.617Z,20.22
2018-05-27T01:04:00.063Z,20.13
2018-05-27T01:06:27.971Z,20.15
2018-05-27T01:08:56.706Z,20.12
2018-05-27T01:11:23.304Z,20.05
2018-05-27T01:13:50.458Z,20.00
2018-05-27T01:16:16.900Z,20.05
2018-05-27T01:18:43.299Z,20.11
2018-05-27T01:21:09.700Z,20.15
2018-05-27T01:23:36.142Z,20.10
2018-05-27T01:26:02.567Z,20.22
2018-05-27T01:28:29.082Z,20.15
2018-05-27T01:30:56.828Z,20.08
2018-05-27T01:33:23.201Z,20.04
2018-05-27T01:35:49.788Z,19.95
2018-05-27T01:38:16.129Z,19.88
2018-05-27T01:40:42.600Z,19.85
2018-05-27T01:43:08.982Z,19.82
2018-05-27T01:45:36.111Z,19.80
2018-05-27T01:48:02.586Z,19.85
2018-05-27T01:50:28.953Z,19.78
2018-05-27T01:52:55.338Z,19.61
2018-05-27T01:55:21.676Z,19.54
2018-05-27T01:57:48.072Z,19.44
2018-05-27T02:00:14.444Z,19.45
2018-05-27T02:02:40.869Z,19.50
2018-05-27T02:05:07.366Z,19.65
2018-05-27T02:07:33.809Z,19.59
2018-05-27T02:10:00.993Z,19.62
2018-05-27T02:12:27.387Z,19.68
2018-05-27T02:14:54.519Z,19.60
2018-05-27T02:17:20.997Z,19.52
2018-05-27T02:19:47.380Z,19.54
2018-05-27T02:22:13.764Z,19.71
2018-05-27T02:24:40.146Z,19.63
2018-05-27T02:27:06.521Z,19.66
2018-05-27T02:29:32.891Z,19.62
2018-05-27T02:31:59.351Z,19.44
2018-05-27T02:34:26.748Z,19.33
2018-05-27T02:36:53.111Z,19.17
2018-05-27T02:39:19.461Z,19.12
2018-05-27T02:41:45.857Z,19.15
2018-05-27T02:44:12.238Z,19.22
2018-05-27T02:46:38.838Z,19.30
2018-05-27T02:49:05.198Z,19.36
2018-05-27T02:51:31.566Z,19.27
2018-05-27T02:53:57.960Z,19.24
2018-05-27T02:56:31.275Z,19.22
2018-05-27T02:58:57.685Z,19.23
2018-05-27T03:01:24.081Z,19.18
2018-05-27T03:03:50.461Z,19.11
2018-05-27T03:06:16.852Z,19.21
2018-05-27T03:08:43.357Z,19.23
2018-05-27T03:11:10.104Z,19.32
2018-05-27T03:13:36.490Z,19.31
2018-05-27T03:16:02.910Z,19.29
2018-05-27T03:18:29.323Z,19.23
2018-05-27T03:20:55.746Z,19.25
2018-05-27T03:23:22.118Z,19.19
2018-05-27T03:25:49.619Z,19.12
2018-05-27T03:28:15.978Z,19.07
2018-05-27T03:30:42.355Z,19.04
2018-05-27T03:33:08.816Z,18.96
2018-05-27T03:35:35.249Z,18.95
2018-05-27T03:38:01.713Z,18.92
2018-05-27T03:40:28.115Z,18.99
2018-05-27T03:42:54.514Z,18.93
2018-05-27T03:45:20.879Z,18.84
2018-05-27T03:47:47.320Z,18.87
2018-05-27T03:50:13.782Z,18.77
2018-05-27T03:52:40.480Z,18.81
2018-05-27T03:55:06.845Z,18.85
2018-05-27T03:57:33.216Z,18.92
2018-05-27T03:59:59.579Z,18.94
2018-05-27T04:02:25.980Z,18.92
2018-05-27T04:05:10.705Z,18.88
2018-05-27T04:07:55.589Z,18.90
2018-05-27T04:10:22.021Z,18.92
2018-05-27T04:12:48.405Z,19.04
2018-05-27T04:15:15.762Z,19.01
2018-05-27T04:17:42.321Z,19.16
2018-05-27T04:20:08.688Z,19.25
2018-05-27T04:22:35.041Z,19.23
2018-05-27T04:25:02.172Z,19.30
2018-05-27T04:27:28.602Z,19.35
2018-05-27T04:29:54.969Z,19.37
2018-05-27T04:32:21.405Z,19.39
2018-05-27T04:34:47.865Z,19.35
2018-05-27T04:37:14.239Z,19.41
2018-05-27T04:39:40.706Z,19.35
2018-05-27T04:42:07.068Z,19.39
2018-05-27T04:44:33.605Z,19.34
2018-05-27T04:47:00.227Z,19.47
2018-05-27T04:49:26.584Z,19.66
2018-05-27T04:51:53.366Z,19.68
2018-05-27T04:54:19.760Z,19.78
2018-05-27T04:56:47.627Z,19.89
2018-05-27T04:59:14.004Z,19.96
2018-05-27T05:01:40.368Z,20.08
2018-05-27T05:04:06.811Z,19.93
2018-05-27T05:06:33.189Z,19.98
2018-05-27T05:09:00.553Z,20.11
2018-05-27T05:11:26.954Z,20.04
2018-05-27T05:13:53.374Z,20.27
2018-05-27T05:16:19.888Z,20.38
2018-05-27T05:18:46.332Z,20.48
2018-05-27T05:21:12.725Z,20.51
2018-05-27T05:23:39.092Z,20.61
2018-05-27T05:26:05.542Z,20.72
2018-05-27T05:28:31.901Z,20.75
2018-05-27T05:30:58.276Z,20.74
2018-05-27T05:33:24.740Z,20.67
2018-05-27T05:35:52.619Z,20.70
2018-05-27T05:38:18.979Z,20.76
2018-05-27T05:40:46.100Z,20.72
2018-05-27T05:43:12.481Z,20.96
2018-05-27T05:45:38.993Z,21.12
2018-05-27T05:48:06.078Z,21.03
2018-05-27T05:50:32.455Z,21.18
2018-05-27T05:52:59.562Z,21.16
2018-05-27T05:55:25.918Z,21.18
2018-05-27T05:57:52.348Z,21.31
2018-05-27T06:00:18.718Z,21.34
2018-05-27T06:02:45.237Z,21.27
2018-05-27T06:05:12.477Z,21.06
2018-05-27T06:07:38.829Z,21.19
2018-05-27T06:10:06.000Z,21.51
2018-05-27T06:12:32.394Z,21.42
2018-05-27T06:14:59.064Z,21.64
2018-05-27T06:17:25.459Z,21.83
2018-05-27T06:19:52.120Z,21.99
2018-05-27T06:22:19.239Z,22.08
2018-05-27T06:24:45.624Z,22.01
2018-05-27T06:27:11.986Z,22.05
2018-05-27T06:29:38.334Z,22.17
2018-05-27T06:32:04.793Z,22.25
2018-05-27T06:34:31.439Z,22.32
2018-05-27T06:36:58.540Z,22.27
2018-05-27T06:39:25.176Z,22.68
2018-05-27T06:41:51.543Z,22.91
2018-05-27T06:44:18.725Z,22.75
2018-05-27T06:46:45.097Z,22.81
2018-05-27T06:49:11.552Z,23.09
2018-05-27T06:51:37.921Z,23.29
2018-05-27T06:54:04.289Z,23.64
2018-05-27T06:56:30.760Z,23.57
2018-05-27T06:58:57.852Z,23.69
2018-05-27T07:01:24.321Z,24.05
2018-05-27T07:03:50.709Z,23.89
2018-05-27T07:06:17.218Z,23.93
2018-05-27T07:08:43.610Z,23.89
2018-05-27T07:11:10.086Z,23.89
2018-05-27T07:13:37.192Z,24.34
2018-05-27T07:16:03.526Z,24.40
2018-05-27T07:18:29.922Z,24.54
2018-05-27T07:20:56.299Z,24.64
2018-05-27T07:23:22.695Z,24.96
2018-05-27T07:25:49.097Z,25.04
2018-05-27T07:28:15.534Z,25.01
2018-05-27T07:30:41.942Z,24.69
2018-05-27T07:33:09.078Z,25.01
2018-05-27T07:35:36.317Z,25.47
2018-05-27T07:38:02.691Z,25.54
2018-05-27T07:40:29.900Z,25.92
2018-05-27T07:42:56.298Z,25.74
2018-05-27T07:45:22.731Z,26.25
2018-05-27T07:47:49.082Z,26.16
2018-05-27T07:50:15.471Z,26.55
2018-05-27T07:52:42.621Z,26.71
2018-05-27T07:55:09.713Z,26.66
2018-05-27T07:57:36.110Z,27.27
2018-05-27T08:00:02.580Z,27.53
2018-05-27T08:02:29.014Z,27.52
2018-05-27T08:04:55.381Z,27.84
2018-05-27T08:07:29.477Z,27.62
2018-05-27T08:09:55.831Z,28.26
2018-05-27T08:12:22.913Z,28.11
2018-05-27T08:14:49.633Z,27.62
2018-05-27T08:17:16.002Z,27.53
2018-05-27T08:19:42.815Z,27.40
2018-05-27T08:22:09.221Z,27.52
2018-05-27T08:24:36.351Z,27.36
2018-05-27T08:27:02.743Z,27.62
2018-05-27T08:29:29.099Z,28.06
2018-05-27T08:31:55.657Z,28.34
2018-05-27T08:34:22.329Z,28.64
2018-05-27T08:36:48.743Z,28.22
2018-05-27T08:39:15.900Z,28.35
2018-05-27T08:41:43.049Z,28.48
2018-05-27T08:44:10.185Z,28.92
2018-05-27T08:46:37.328Z,29.24
2018-05-27T08:49:03.987Z,29.01
2018-05-27T08:51:31.156Z,28.80
2018-05-27T08:53:57.877Z,29.29
2018-05-27T08:56:25.057Z,29.60
2018-05-27T08:58:51.402Z,28.72
2018-05-27T09:01:17.837Z,29.21
2018-05-27T09:03:44.248Z,29.89
2018-05-27T09:06:10.657Z,29.47
2018-05-27T09:08:37.838Z,29.90
2018-05-27T09:11:04.271Z,29.00
2018-05-27T09:13:30.665Z,29.45
2018-05-27T09:15:57.861Z,29.74
2018-05-27T09:18:24.378Z,29.78
2018-05-27T09:20:50.837Z,30.10
2018-05-27T09:23:17.251Z,30.21
2018-05-27T09:25:43.688Z,30.56
2018-05-27T09:28:10.401Z,30.63
2018-05-27T09:30:36.775Z,30.68
2018-05-27T09:33:03.164Z,31.14
2018-05-27T09:35:29.757Z,30.78
2018-05-27T09:37:56.169Z,30.97
2018-05-27T09:40:22.597Z,30.75
2018-05-27T09:42:48.995Z,30.52
2018-05-27T09:45:15.689Z,30.30
2018-05-27T09:47:42.109Z,30.53
2018-05-27T09:50:08.444Z,30.38
2018-05-27T09:52:34.792Z,29.41
2018-05-27T09:55:02.031Z,29.97
2018-05-27T09:57:28.517Z,29.55
2018-05-27T09:59:55.653Z,30.26
2018-05-27T10:02:22.625Z,31.00
2018-05-27T10:04:49.942Z,30.51
2018-05-27T10:07:17.156Z,30.11
2018-05-27T10:09:43.673Z,29.81
2018-05-27T10:12:10.055Z,29.80
2018-05-27T10:14:36.517Z,29.96
2018-05-27T10:17:04.378Z,29.77
2018-05-27T10:19:31.523Z,30.94
2018-05-27T10:21:58.745Z,31.19
2018-05-27T10:24:25.345Z,31.99
2018-05-27T10:26:51.766Z,31.99
2018-05-27T10:29:18.136Z,32.15
2018-05-27T10:31:44.736Z,32.19
2018-05-27T10:34:11.136Z,32.50
2018-05-27T10:36:37.849Z,32.51
2018-05-27T10:39:05.377Z,32.72
2018-05-27T10:41:32.032Z,33.49
2018-05-27T10:43:58.527Z,32.84
2018-05-27T10:46:24.959Z,32.97
2018-05-27T10:48:51.410Z,33.75
2018-05-27T10:51:18.093Z,34.59
2018-05-27T10:53:44.653Z,33.51
2018-05-27T10:56:12.117Z,33.79
2018-05-27T10:58:39.332Z,33.55
2018-05-27T11:01:05.777Z,34.25
2018-05-27T11:03:32.356Z,34.25
2018-05-27T11:05:58.952Z,34.47
2018-05-27T11:08:25.323Z,35.28
2018-05-27T11:10:51.776Z,35.12
2018-05-27T11:13:18.477Z,35.30
2018-05-27T11:15:45.561Z,35.09
2018-05-27T11:18:11.930Z,35.58
2018-05-27T11:20:38.312Z,35.64
2018-05-27T11:23:04.784Z,35.49
2018-05-27T11:25:31.153Z,34.30
2018-05-27T11:27:58.276Z,34.23
2018-05-27T11:30:24.633Z,34.21
2018-05-27T11:32:51.765Z,33.99
2018-05-27T11:35:18.974Z,33.68
2018-05-27T11:37:45.351Z,32.89
2018-05-27T11:40:11.752Z,32.21
2018-05-27T11:42:38.187Z,32.14
2018-05-27T11:45:04.527Z,31.78
2018-05-27T11:47:30.898Z,31.73
2018-05-27T11:49:58.141Z,31.69
2018-05-27T11:52:25.606Z,31.83
2018-05-27T11:54:52.869Z,31.72
2018-05-27T11:57:19.319Z,31.89
2018-05-27T11:59:45.725Z,31.80
2018-05-27T12:02:12.830Z,31.65
2018-05-27T12:04:39.238Z,31.21
2018-05-27T12:07:05.716Z,31.09
2018-05-27T12:09:32.263Z,30.93
2018-05-27T12:11:58.805Z,30.78
2018-05-27T12:14:26.064Z,30.66
2018-05-27T12:16:52.522Z,30.41
2018-05-27T12:19:19.273Z,30.70
2018-05-27T12:21:45.642Z,30.76
2018-05-27T12:24:12.130Z,30.74
2018-05-27T12:26:39.288Z,30.41
2018-05-27T12:29:05.733Z,30.26
2018-05-27T12:31:32.184Z,30.58
2018-05-27T12:33:58.859Z,30.64
2018-05-27T12:36:26.133Z,30.75
2018-05-27T12:38:52.525Z,30.56
2018-05-27T12:41:19.651Z,30.63
2018-05-27T12:43:46.016Z,30.59
2018-05-27T12:46:13.175Z,30.33
2018-05-27T12:48:39.589Z,30.08
2018-05-27T12:51:06.783Z,30.09
2018-05-27T12:53:33.140Z,30.28
2018-05-27T12:55:59.575Z,29.91
2018-05-27T12:58:26.024Z,30.02
2018-05-27T13:00:52.409Z,29.65
2018-05-27T13:03:18.763Z,29.72
2018-05-27T13:05:45.450Z,29.61
2018-05-27T13:08:12.659Z,29.45
2018-05-27T13:10:39.118Z,29.37
2018-05-27T13:13:06.198Z,29.30
2018-05-27T13:15:32.821Z,29.31
2018-05-27T13:17:59.992Z,29.17
2018-05-27T13:20:26.709Z,29.10
2018-05-27T13:22:53.865Z,29.37
2018-05-27T13:25:20.287Z,29.09
2018-05-27T13:27:46.682Z,29.04
2018-05-27T13:30:13.080Z,28.81
2018-05-27T13:32:39.494Z,28.70
2018-05-27T13:35:06.700Z,28.69
2018-05-27T13:37:33.484Z,28.58
2018-05-27T13:40:00.700Z,28.65
2018-05-27T13:42:27.896Z,28.44
2018-05-27T13:44:54.363Z,28.40
2018-05-27T13:47:20.730Z,28.33
2018-05-27T13:49:47.073Z,28.32
2018-05-27T13:52:14.218Z,28.49
2018-05-27T13:54:41.374Z,28.52
2018-05-27T13:57:08.491Z,28.23
2018-05-27T13:59:34.954Z,28.08
2018-05-27T14:02:02.109Z,28.08
2018-05-27T14:04:29.260Z,27.83
2018-05-27T14:06:56.716Z,27.72
2018-05-27T14:09:23.831Z,27.79
2018-05-27T14:11:50.188Z,27.62
2018-05-27T14:14:17.281Z,27.81
2018-05-27T14:16:43.707Z,27.94
2018-05-27T14:19:10.106Z,28.06
2018-05-27T14:21:37.200Z,28.19
2018-05-27T14:24:03.885Z,28.26
2018-05-27T14:26:31.086Z,28.27
2018-05-27T14:28:57.448Z,28.37
2018-05-27T14:31:23.846Z,28.56
2018-05-27T14:33:50.239Z,29.07
2018-05-27T14:36:17.431Z,28.93
2018-05-27T14:38:43.802Z,29.10
2018-05-27T14:41:10.241Z,28.94
2018-05-27T14:43:36.694Z,28.58
2018-05-27T14:46:03.766Z,28.79
2018-05-27T14:48:30.296Z,28.70
2018-05-27T14:50:56.740Z,28.52
2018-05-27T14:53:23.097Z,28.43
2018-05-27T14:55:49.482Z,28.08
2018-05-27T14:58:15.921Z,28.28
2018-05-27T15:00:42.400Z,28.37
2018-05-27T15:03:09.098Z,28.47
2018-05-27T15:05:35.513Z,28.16
2018-05-27T15:08:02.646Z,28.33
2018-05-27T15:10:29.758Z,28.55
2018-05-27T15:12:56.170Z,28.66
2018-05-27T15:15:22.562Z,29.09
2018-05-27T15:17:49.715Z,28.92
2018-05-27T15:20:16.237Z,29.12
2018-05-27T15:22:42.739Z,29.65
2018-05-27T15:25:09.197Z,29.91
2018-05-27T15:27:35.584Z,30.37
2018-05-27T15:30:02.005Z,30.97
2018-05-27T15:32:28.389Z,32.08
2018-05-27T15:34:54.753Z,32.69
2018-05-27T15:37:21.884Z,32.95
2018-05-27T15:39:48.290Z,33.43
2018-05-27T15:42:15.070Z,32.97
2018-05-27T15:44:42.426Z,32.99
2018-05-27T15:47:08.821Z,33.30
2018-05-27T15:49:35.246Z,33.90
2018-05-27T15:52:01.612Z,34.18
2018-05-27T15:54:28.718Z,34.70
2018-05-27T15:56:55.071Z,35.73
2018-05-27T15:59:21.599Z,35.74
2018-05-27T16:01:48.040Z,36.12
2018-05-27T16:04:14.672Z,35.12
2018-05-27T16:06:41.359Z,35.73
2018-05-27T16:09:07.744Z,35.49
2018-05-27T16:11:34.356Z,36.25
2018-05-27T16:14:01.626Z,37.69
2018-05-27T16:16:28.058Z,37.11
2018-05-27T16:18:54.432Z,37.41
2018-05-27T16:21:21.591Z,38.26
2018-05-27T16:23:48.840Z,37.65
2018-05-27T16:26:15.240Z,36.48
2018-05-27T16:28:41.669Z,36.74
2018-05-27T16:31:08.110Z,35.98
2018-05-27T16:33:35.213Z,35.34
2018-05-27T16:36:01.576Z,34.42
2018-05-27T16:38:28.836Z,34.09
2018-05-27T16:40:55.263Z,33.09
2018-05-27T16:43:22.041Z,32.66
2018-05-27T16:45:56.525Z,32.14
2018-05-27T16:48:22.893Z,31.64
2018-05-27T16:50:50.101Z,31.28
2018-05-27T16:53:16.550Z,31.22
2018-05-27T16:55:43.658Z,31.15
2018-05-27T16:58:10.058Z,30.84
2018-05-27T17:00:37.280Z,30.36
2018-05-27T17:03:03.807Z,30.11
2018-05-27T17:05:30.398Z,30.01
2018-05-27T17:07:56.784Z,29.82
2018-05-27T17:10:23.210Z,29.86
2018-05-27T17:12:49.819Z,29.84
2018-05-27T17:15:16.234Z,29.89
2018-05-27T17:17:42.723Z,30.05
2018-05-27T17:20:09.161Z,30.04
2018-05-27T17:22:35.787Z,30.13
2018-05-27T17:25:02.126Z,30.09
2018-05-27T17:27:28.521Z,29.86
2018-05-27T17:29:55.167Z,29.63
2018-05-27T17:32:21.549Z,29.52
2018-05-27T17:34:48.677Z,29.75
2018-05-27T17:37:15.891Z,29.59
2018-05-27T17:39:42.533Z,29.56
2018-05-27T17:42:08.965Z,29.48
2018-05-27T17:44:35.305Z,28.89
2018-05-27T17:47:01.769Z,29.20
2018-05-27T17:49:28.153Z,29.05
2018-05-27T17:51:54.758Z,29.03
2018-05-27T17:54:22.026Z,28.91
2018-05-27T17:56:48.389Z,28.96
2018-05-27T17:59:14.770Z,28.69
2018-05-27T18:01:41.837Z,28.58
2018-05-27T18:04:08.285Z,28.44
2018-05-27T18:06:34.678Z,28.68
2018-05-27T18:09:01.835Z,28.51
2018-05-27T18:11:28.219Z,28.16
2018-05-27T18:13:54.590Z,28.08
2018-05-27T18:16:22.049Z,27.99
2018-05-27T18:18:49.311Z,27.88
2018-05-27T18:21:15.950Z,27.81
2018-05-27T18:23:42.347Z,27.65
2018-05-27T18:26:09.544Z,27.64
2018-05-27T18:28:35.891Z,27.66
2018-05-27T18:31:02.315Z,27.48
2018-05-27T18:33:28.674Z,27.44
2018-05-27T18:35:55.054Z,27.67
2018-05-27T18:38:22.209Z,27.34
2018-05-27T18:40:48.620Z,26.98
2018-05-27T18:43:15.853Z,27.17
2018-05-27T18:45:42.261Z,26.82
2018-05-27T18:48:08.673Z,26.72
2018-05-27T18:50:35.339Z,26.73
2018-05-27T18:53:01.721Z,26.58
2018-05-27T18:55:29.116Z,26.35
2018-05-27T18:57:55.582Z,26.27
2018-05-27T19:00:22.266Z,26.17
2018-05-27T19:02:48.646Z,25.95
2018-05-27T19:05:15.321Z,25.80
2018-05-27T19:07:42.497Z,25.64
2018-05-27T19:10:09.530Z,25.56
2018-05-27T19:12:36.057Z,25.32
2018-05-27T19:15:02.438Z,25.21
2018-05-27T19:17:28.837Z,24.99
2018-05-27T19:19:55.585Z,24.86
2018-05-27T19:22:21.957Z,24.66
2018-05-27T19:24:48.379Z,24.52
2018-05-27T19:27:14.802Z,24.49
2018-05-27T19:29:41.291Z,24.62
2018-05-27T19:32:07.747Z,24.40
2018-05-27T19:34:34.170Z,24.20
2018-05-27T19:37:00.590Z,24.22
2018-05-27T19:39:27.993Z,24.18
2018-05-27T19:41:54.421Z,24.08
2018-05-27T19:44:20.785Z,24.04
2018-05-27T19:46:47.327Z,23.95
2018-05-27T19:49:14.452Z,24.04
2018-05-27T19:51:41.046Z,24.05
2018-05-27T19:54:07.454Z,24.06
2018-05-27T19:56:34.713Z,24.12
2018-05-27T19:59:02.026Z,24.14
2018-05-27T20:01:28.665Z,24.14
2018-05-27T20:03:55.800Z,24.10
2018-05-27T20:06:22.664Z,24.04
2018-05-27T20:08:49.792Z,24.06
2018-05-27T20:11:16.576Z,24.07
2018-05-27T20:13:43.093Z,24.13
2018-05-27T20:16:10.879Z,24.07
2018-05-27T20:18:39.070Z,24.21
2018-05-27T20:21:05.545Z,24.12
2018-05-27T20:23:33.160Z,24.03
2018-05-27T20:26:00.333Z,24.10
2018-05-27T20:28:26.928Z,24.03
2018-05-27T20:30:53.537Z,23.99
2018-05-27T20:33:19.922Z,23.94
2018-05-27T20:35:46.342Z,23.92
2018-05-27T20:38:13.506Z,23.98
2018-05-27T20:40:39.894Z,24.01
2018-05-27T20:43:07.286Z,23.97
2018-05-27T20:45:33.685Z,24.05
2018-05-27T20:48:00.436Z,23.98
2018-05-27T20:50:27.573Z,23.95
2018-05-27T20:52:54.702Z,23.91
2018-05-27T20:55:22.262Z,23.92
2018-05-27T20:57:48.997Z,23.99
2018-05-27T21:00:15.712Z,24.02
2018-05-27T21:02:42.301Z,23.88
2018-05-27T21:05:08.802Z,23.84
2018-05-27T21:07:35.820Z,23.84
2018-05-27T21:10:02.382Z,23.78
2018-05-27T21:12:30.192Z,23.68
2018-05-27T21:14:57.792Z,23.60
2018-05-27T21:17:24.553Z,23.55
2018-05-27T21:19:56.039Z,23.50
2018-05-27T21:22:23.208Z,23.49
2018-05-27T21:24:50.624Z,23.53
2018-05-27T21:27:19.023Z,23.57
2018-05-27T21:29:46.238Z,23.64
2018-05-27T21:32:12.628Z,23.64
2018-05-27T21:34:39.675Z,23.65
2018-05-27T21:37:06.159Z,23.58
2018-05-27T21:39:32.698Z,23.59
2018-05-27T21:41:59.176Z,23.53
2018-05-27T21:44:25.894Z,23.47
2018-05-27T21:46:53.044Z,23.39
2018-05-27T21:49:20.217Z,23.39
2018-05-27T21:51:46.827Z,23.29
2018-05-27T21:54:13.331Z,23.38
2018-05-27T21:56:39.717Z,23.38
2018-05-27T21:59:07.030Z,23.32
2018-05-27T22:01:33.617Z,23.26
2018-05-27T22:04:00.076Z,23.20
2018-05-27T22:06:26.446Z,23.14
2018-05-27T22:08:53.605Z,23.09
2018-05-27T22:11:20.725Z,23.01
2018-05-27T22:13:47.131Z,22.97
2018-05-27T22:16:13.490Z,22.88
2018-05-27T22:18:41.128Z,22.79
2018-05-27T22:21:07.839Z,22.72
2018-05-27T22:23:34.963Z,22.68
2018-05-27T22:26:01.514Z,22.61
2018-05-27T22:28:28.103Z,22.53
2018-05-27T22:30:54.554Z,22.49
2018-05-27T22:33:20.945Z,22.37
2018-05-27T22:35:47.656Z,22.29
2018-05-27T22:38:14.809Z,22.23
2018-05-27T22:40:41.946Z,22.11
2018-05-27T22:43:09.112Z,21.99
2018-05-27T22:45:35.495Z,21.95
2018-05-27T22:48:01.963Z,21.96
2018-05-27T22:50:29.074Z,22.03
2018-05-27T22:52:55.426Z,22.08
2018-05-27T22:55:21.870Z,21.95
2018-05-27T22:57:48.986Z,21.83
2018-05-27T23:00:15.476Z,21.91
2018-05-27T23:02:41.900Z,21.82
2018-05-27T23:05:11.279Z,21.73
2018-05-27T23:07:39.165Z,21.71
2018-05-27T23:10:07.655Z,21.75
2018-05-27T23:12:36.277Z,21.69
2018-05-27T23:15:03.673Z,21.63
2018-05-27T23:17:31.974Z,21.64
2018-05-27T23:19:58.612Z,21.55
2018-05-27T23:22:25.026Z,21.49
2018-05-27T23:24:52.175Z,21.51
2018-05-27T23:27:19.321Z,21.48
2018-05-27T23:29:46.558Z,21.45
2018-05-27T23:32:13.246Z,21.44
2018-05-27T23:34:39.727Z,21.47
2018-05-27T23:37:06.146Z,21.33
2018-05-27T23:39:32.735Z,21.18
2018-05-27T23:41:59.921Z,21.06
2018-05-27T23:44:26.932Z,20.98
2018-05-27T23:46:53.564Z,20.99
2018-05-27T23:49:20.748Z,20.96
2018-05-27T23:51:47.225Z,20.91
2018-05-27T23:54:13.889Z,20.83
2018-05-27T23:56:40.975Z,20.75
2018-05-27T23:59:07.370Z,20.70
